sensor_id;sensor_type;location;lat;lon;timestamp;temperature;humidity
47226;DHT22;32965;64.142;-21.912;2022-12-29T10:35:46;-2.80;77.00
47226;DHT22;32965;64.142;-21.912;2022-12-29T16:07:30;-4.10;83.40
47226;DHT22;32965;64.142;-21.912;2022-12-29T16:33:51;-4.20;84.20
47226;DHT22;32965;64.142;-21.912;2022-12-29T16:38:50;-4.20;84.40
47226;DHT22;32965;64.142;-21.912;2022-12-29T16:41:29;-4.20;84.80
47226;DHT22;32965;64.142;-21.912;2022-12-29T16:44:30;-4.20;85.40
47226;DHT22;32965;64.142;-21.912;2022-12-29T16:49:40;-4.30;85.20
47226;DHT22;32965;64.142;-21.912;2022-12-29T16:52:33;-4.30;85.50
47226;DHT22;32965;64.142;-21.912;2022-12-29T16:55:00;-4.30;85.40
47226;DHT22;32965;64.142;-21.912;2022-12-29T16:57:31;-4.40;85.60
47226;DHT22;32965;64.142;-21.912;2022-12-29T17:00:07;-4.30;85.80
47226;DHT22;32965;64.142;-21.912;2022-12-29T17:10:27;-4.40;86.30
47226;DHT22;32965;64.142;-21.912;2022-12-29T17:13:14;-4.30;86.70
47226;DHT22;32965;64.142;-21.912;2022-12-29T17:15:40;-4.40;86.60
47226;DHT22;32965;64.142;-21.912;2022-12-29T17:18:16;-4.20;87.20
47226;DHT22;32965;64.142;-21.912;2022-12-29T17:21:06;-4.10;87.60
47226;DHT22;32965;64.142;-21.912;2022-12-29T17:23:33;-4.10;87.80
47226;DHT22;32965;64.142;-21.912;2022-12-29T17:26:00;-4.00;88.10
47226;DHT22;32965;64.142;-21.912;2022-12-29T17:28:28;-3.90;88.40
47226;DHT22;32965;64.142;-21.912;2022-12-29T17:31:03;-3.80;88.60
47226;DHT22;32965;64.142;-21.912;2022-12-29T17:33:36;-3.70;88.80
47226;DHT22;32965;64.142;-21.912;2022-12-29T17:36:03;-3.60;89.10
47226;DHT22;32965;64.142;-21.912;2022-12-29T17:38:34;-3.50;89.20
47226;DHT22;32965;64.142;-21.912;2022-12-29T17:41:00;-3.40;89.40
47226;DHT22;32965;64.142;-21.912;2022-12-29T17:48:36;-3.20;89.80
47226;DHT22;32965;64.142;-21.912;2022-12-29T17:51:03;-3.10;89.80
47226;DHT22;32965;64.142;-21.912;2022-12-29T17:53:33;-3.00;89.90
47226;DHT22;32965;64.142;-21.912;2022-12-29T17:56:05;-3.00;90.00
47226;DHT22;32965;64.142;-21.912;2022-12-29T18:04:32;-2.80;90.10
47226;DHT22;32965;64.142;-21.912;2022-12-29T18:06:59;-2.70;90.10
47226;DHT22;32965;64.142;-21.912;2022-12-29T18:09:26;-2.70;90.10
47226;DHT22;32965;64.142;-21.912;2022-12-29T18:11:52;-2.60;90.10
47226;DHT22;32965;64.142;-21.912;2022-12-29T18:19:29;-2.40;90.20
47226;DHT22;32965;64.142;-21.912;2022-12-29T18:24:31;-2.30;90.20
47226;DHT22;32965;64.142;-21.912;2022-12-29T18:27:01;-2.20;90.20
47226;DHT22;32965;64.142;-21.912;2022-12-29T18:29:27;-2.30;90.20
47226;DHT22;32965;64.142;-21.912;2022-12-29T18:31:53;-2.10;90.20
47226;DHT22;32965;64.142;-21.912;2022-12-29T18:34:19;-2.10;90.20
47226;DHT22;32965;64.142;-21.912;2022-12-29T18:36:58;-2.00;90.20
47226;DHT22;32965;64.142;-21.912;2022-12-29T18:39:27;-1.90;90.10
47226;DHT22;32965;64.142;-21.912;2022-12-29T18:45:23;-1.80;90.20
47226;DHT22;32965;64.142;-21.912;2022-12-29T18:47:49;-1.90;90.20
47226;DHT22;32965;64.142;-21.912;2022-12-29T18:50:18;-1.80;90.20
47226;DHT22;32965;64.142;-21.912;2022-12-29T18:52:44;-1.80;90.10
47226;DHT22;32965;64.142;-21.912;2022-12-29T18:55:19;-1.70;90.10
47226;DHT22;32965;64.142;-21.912;2022-12-29T18:57:45;-1.70;90.10
47226;DHT22;32965;64.142;-21.912;2022-12-29T19:03:13;-1.60;90.10
47226;DHT22;32965;64.142;-21.912;2022-12-29T19:05:40;-1.60;89.90
